Aquila — WDF8873 — position and weather

sailwx.info

Track history (hours):
 
Tides and Currents Weather Stations Pressure Air Temp Water Temp Dewpoint Dewpoint Depression Visibility Wind Speed Wind Dir Waves Ship Positions

Aquila

Owner: Inter Island Yachts Inc., Zephyr Cove, NV. More information available from US FCC via Universal Licensing System and Coast Guard Vessel Documentation Center.

Last reported at 2017-Oct-18 17:48 UTC. Time now 2017-Oct-18 20:26 UTC.
Position N 33°43' W 118°17'.

Length 20 m.

Type: Passenger vessel. MMSI: 366554000.

Date/timePositionNaut miles runAvg speedWind from/ knotsBaromVisibWave heightAir tempDewpointWater temp
2017-Oct-18 17:48N 33°43' W 118°17'0 0.0
2017-Oct-18 17:26N 33°43' W 118°17'0 0.0
2017-Oct-18 00:01N 33°43' W 118°17'0 0.0
2017-Oct-17 19:09N 33°43' W 118°17'0 0.0
2017-Oct-17 18:56N 33°43' W 118°17'0 0.0
2017-Oct-17 18:06N 33°43' W 118°17'0 0.0
2017-Oct-17 17:52N 33°43' W 118°17'0 0.0
2017-Oct-17 00:23N 33°43' W 118°17'0 0.0
2017-Oct-16 23:06N 33°43' W 118°17'0 0.0
2017-Oct-16 22:43N 33°43' W 118°17'0 0.0
2017-Oct-16 20:49N 33°43' W 118°17'0 0.0
2017-Oct-16 20:28N 33°43' W 118°17'0 0.0
2017-Oct-16 19:58N 33°43' W 118°17'0 0.0
2017-Oct-16 19:25N 33°43' W 118°17'0 0.0
2017-Oct-16 18:26N 33°43' W 118°17'0 0.0
2017-Oct-16 01:10N 33°43' W 118°17'0 0.0
2017-Oct-16 00:44N 33°43' W 118°17'0 0.0
2017-Oct-16 00:25N 33°43' W 118°17'0 0.0
2017-Oct-15 23:48N 33°43' W 118°17'0 0.0
2017-Oct-15 22:25N 33°43' W 118°17'0 0.0
2017-Oct-15 18:30N 33°43' W 118°17'0 0.0
2017-Oct-15 17:52N 33°43' W 118°17'0 0.0
2017-Oct-15 16:09N 33°43' W 118°17'0 0.0
2017-Oct-15 15:54N 33°43' W 118°17'0 0.0
2017-Oct-15 09:55N 33°43' W 118°17'0 0.0
2017-Oct-15 09:28N 33°43' W 118°17'0 0.0
2017-Oct-15 08:02N 33°43' W 118°17'0 0.0
2017-Oct-15 07:56N 33°43' W 118°17'0 0.0
2017-Oct-15 00:03N 33°43' W 118°17'0 0.0
2017-Oct-14 23:06N 33°43' W 118°17'0 0.0
2017-Oct-14 22:43N 33°43' W 118°17'0 0.0
2017-Oct-14 19:32N 33°43' W 118°17'0 0.0
2017-Oct-14 19:05N 33°43' W 118°17'0 0.0
2017-Oct-14 18:48N 33°43' W 118°17'  
2017-Oct-11 20:19N 33°43' W 118°17'0 0.0
2017-Oct-11 19:54N 33°43' W 118°17'0 0.0
2017-Oct-11 19:14N 33°43' W 118°17'0 0.0
2017-Oct-11 18:44N 33°43' W 118°17'0 0.0
2017-Oct-11 18:06N 33°43' W 118°17'0 0.0
2017-Oct-11 17:59N 33°43' W 118°17'0 0.0
2017-Oct-10 23:55N 33°43' W 118°17'0 0.0
2017-Oct-10 23:23N 33°43' W 118°17'0 0.0
2017-Oct-10 22:41N 33°43' W 118°17'0 0.0
2017-Oct-10 22:27N 33°43' W 118°17'0 0.0
2017-Oct-10 20:12N 33°43' W 118°17'0 0.0
2017-Oct-10 19:09N 33°43' W 118°17'0 0.0
2017-Oct-10 18:48N 33°43' W 118°17'0 0.0
2017-Oct-10 17:39N 33°43' W 118°17'0 0.0
2017-Oct-10 16:48N 33°43' W 118°17'0 0.0
2017-Oct-10 16:31N 33°43' W 118°17'0 0.0
2017-Oct-10 13:44N 33°43' W 118°17'0 0.0
2017-Oct-10 13:12N 33°43' W 118°17'0 0.0
2017-Oct-10 05:21N 33°43' W 118°17'0 0.0
2017-Oct-10 04:38N 33°43' W 118°17'0 0.0
2017-Oct-10 04:29N 33°43' W 118°17'0 0.0
2017-Oct-10 02:25N 33°43' W 118°17'0 0.0
2017-Oct-10 02:00N 33°43' W 118°17'0 0.0
2017-Oct-10 00:57N 33°43' W 118°17'0 0.0
2017-Oct-10 00:30N 33°43' W 118°17'0 0.0
2017-Oct-09 23:55N 33°43' W 118°17'0 0.0
2017-Oct-09 23:27N 33°43' W 118°17'0 0.0
2017-Oct-09 22:54N 33°43' W 118°17'0 0.0
2017-Oct-09 22:30N 33°43' W 118°17'0 0.0
2017-Oct-09 20:25N 33°43' W 118°17'0 0.0
2017-Oct-09 19:58N 33°43' W 118°17'0 0.0
2017-Oct-09 19:13N 33°43' W 118°17'0 0.0
2017-Oct-09 18:55N 33°43' W 118°17'0 0.0
2017-Oct-09 18:30N 33°43' W 118°17'0 0.0
2017-Oct-09 17:59N 33°43' W 118°17'0 0.0
2017-Oct-08 23:11N 33°43' W 118°17'1 3.0
2017-Oct-08 22:58N 33°43' W 118°16'3 6.3
2017-Oct-08 22:28N 33°40' W 118°18'15 8.4
2017-Oct-08 20:43N 33°30' W 118°30'2 2.7
2017-Oct-08 20:01N 33°28' W 118°31'0 4.6
2017-Oct-08 20:00N 33°28' W 118°31'  
Track history (hours):
 
Tides and Currents Weather Stations Pressure Air Temp Water Temp Dewpoint Dewpoint Depression Visibility Wind Speed Wind Dir Waves Ship Positions

Aquila

Owner: Inter Island Yachts Inc., Zephyr Cove, NV. More information available from US FCC via Universal Licensing System and Coast Guard Vessel Documentation Center.

Last reported at 2017-Oct-18 17:48 UTC. Time now 2017-Oct-18 20:26 UTC.
Position N 33°43' W 118°17'.

Length 20 m.

Type: Passenger vessel. MMSI: 366554000.

Date/timePositionNaut miles runAvg speedWind from/ knotsBaromVisibWave heightAir tempDewpointWater temp
2017-Oct-18 17:48N 33°43' W 118°17'0 0.0
2017-Oct-18 17:26N 33°43' W 118°17'0 0.0
2017-Oct-18 00:01N 33°43' W 118°17'0 0.0
2017-Oct-17 19:09N 33°43' W 118°17'0 0.0
2017-Oct-17 18:56N 33°43' W 118°17'0 0.0
2017-Oct-17 18:06N 33°43' W 118°17'0 0.0
2017-Oct-17 17:52N 33°43' W 118°17'0 0.0
2017-Oct-17 00:23N 33°43' W 118°17'0 0.0
2017-Oct-16 23:06N 33°43' W 118°17'0 0.0
2017-Oct-16 22:43N 33°43' W 118°17'0 0.0
2017-Oct-16 20:49N 33°43' W 118°17'0 0.0
2017-Oct-16 20:28N 33°43' W 118°17'0 0.0
2017-Oct-16 19:58N 33°43' W 118°17'0 0.0
2017-Oct-16 19:25N 33°43' W 118°17'0 0.0
2017-Oct-16 18:26N 33°43' W 118°17'0 0.0
2017-Oct-16 01:10N 33°43' W 118°17'0 0.0
2017-Oct-16 00:44N 33°43' W 118°17'0 0.0
2017-Oct-16 00:25N 33°43' W 118°17'0 0.0
2017-Oct-15 23:48N 33°43' W 118°17'0 0.0
2017-Oct-15 22:25N 33°43' W 118°17'0 0.0
2017-Oct-15 18:30N 33°43' W 118°17'0 0.0
2017-Oct-15 17:52N 33°43' W 118°17'0 0.0
2017-Oct-15 16:09N 33°43' W 118°17'0 0.0
2017-Oct-15 15:54N 33°43' W 118°17'0 0.0
2017-Oct-15 09:55N 33°43' W 118°17'0 0.0
2017-Oct-15 09:28N 33°43' W 118°17'0 0.0
2017-Oct-15 08:02N 33°43' W 118°17'0 0.0
2017-Oct-15 07:56N 33°43' W 118°17'0 0.0
2017-Oct-15 00:03N 33°43' W 118°17'0 0.0
2017-Oct-14 23:06N 33°43' W 118°17'0 0.0
2017-Oct-14 22:43N 33°43' W 118°17'0 0.0
2017-Oct-14 19:32N 33°43' W 118°17'0 0.0
2017-Oct-14 19:05N 33°43' W 118°17'0 0.0
2017-Oct-14 18:48N 33°43' W 118°17'  
2017-Oct-11 20:19N 33°43' W 118°17'0 0.0
2017-Oct-11 19:54N 33°43' W 118°17'0 0.0
2017-Oct-11 19:14N 33°43' W 118°17'0 0.0
2017-Oct-11 18:44N 33°43' W 118°17'0 0.0
2017-Oct-11 18:06N 33°43' W 118°17'0 0.0
2017-Oct-11 17:59N 33°43' W 118°17'0 0.0
2017-Oct-10 23:55N 33°43' W 118°17'0 0.0
2017-Oct-10 23:23N 33°43' W 118°17'0 0.0
2017-Oct-10 22:41N 33°43' W 118°17'0 0.0
2017-Oct-10 22:27N 33°43' W 118°17'0 0.0
2017-Oct-10 20:12N 33°43' W 118°17'0 0.0
2017-Oct-10 19:09N 33°43' W 118°17'0 0.0
2017-Oct-10 18:48N 33°43' W 118°17'0 0.0
2017-Oct-10 17:39N 33°43' W 118°17'0 0.0
2017-Oct-10 16:48N 33°43' W 118°17'0 0.0
2017-Oct-10 16:31N 33°43' W 118°17'0 0.0
2017-Oct-10 13:44N 33°43' W 118°17'0 0.0
2017-Oct-10 13:12N 33°43' W 118°17'0 0.0
2017-Oct-10 05:21N 33°43' W 118°17'0 0.0
2017-Oct-10 04:38N 33°43' W 118°17'0 0.0
2017-Oct-10 04:29N 33°43' W 118°17'0 0.0
2017-Oct-10 02:25N 33°43' W 118°17'0 0.0
2017-Oct-10 02:00N 33°43' W 118°17'0 0.0
2017-Oct-10 00:57N 33°43' W 118°17'0 0.0
2017-Oct-10 00:30N 33°43' W 118°17'0 0.0
2017-Oct-09 23:55N 33°43' W 118°17'0 0.0
2017-Oct-09 23:27N 33°43' W 118°17'0 0.0
2017-Oct-09 22:54N 33°43' W 118°17'0 0.0
2017-Oct-09 22:30N 33°43' W 118°17'0 0.0
2017-Oct-09 20:25N 33°43' W 118°17'0 0.0
2017-Oct-09 19:58N 33°43' W 118°17'0 0.0
2017-Oct-09 19:13N 33°43' W 118°17'0 0.0
2017-Oct-09 18:55N 33°43' W 118°17'0 0.0
2017-Oct-09 18:30N 33°43' W 118°17'0 0.0
2017-Oct-09 17:59N 33°43' W 118°17'0 0.0
2017-Oct-08 23:11N 33°43' W 118°17'1 3.0
2017-Oct-08 22:58N 33°43' W 118°16'3 6.3
2017-Oct-08 22:28N 33°40' W 118°18'15 8.4
2017-Oct-08 20:43N 33°30' W 118°30'2 2.7
2017-Oct-08 20:01N 33°28' W 118°31'0 4.6
2017-Oct-08 20:00N 33°28' W 118°31'  

Dump ship's entire track history